Time;durP1;ratioP1;P1;durP2;ratioP2;P2;SDS_P1;SDS_P2;PMS_P1;PMS_P2;Temp;Humidity;BMP_temperature;BMP_pressure;BME280_temperature;BME280_humidity;BME280_pressure;Samples;Min_cycle;Max_cycle;Signal;HPM_P1;HPM_P2
2021/04/18 00:01:36;;;;;;;14.70;12.13;;;3.20;99.90;;;;;;5028759;28;20424;-69
2021/04/18 00:04:07;;;;;;;14.60;10.83;;;3.30;99.90;;;;;;5028303;28;20452;-69
2021/04/18 00:06:35;;;;;;;14.03;11.90;;;3.30;99.90;;;;;;5029108;28;20477;-69
2021/04/18 00:09:12;;;;;;;13.63;10.93;;;3.30;99.90;;;;;;5028367;28;20435;-69
2021/04/18 00:11:39;;;;;;;13.23;10.77;;;3.30;99.90;;;;;;5028550;28;20423;-69
2021/04/18 00:14:10;;;;;;;19.03;11.20;;;3.20;99.90;;;;;;5027688;28;20595;-69
2021/04/18 00:16:44;;;;;;;14.43;10.60;;;3.20;99.90;;;;;;5028422;28;20538;-68
2021/04/18 00:19:11;;;;;;;15.80;11.57;;;3.20;99.90;;;;;;5028457;28;20773;-69
2021/04/18 00:21:38;;;;;;;11.70;10.43;;;3.20;99.90;;;;;;5028185;28;20436;-69
2021/04/18 00:24:05;;;;;;;14.97;11.37;;;3.20;99.90;;;;;;5027299;28;20460;-69
2021/04/18 00:26:33;;;;;;;12.87;9.63;;;3.20;99.90;;;;;;5028311;28;20436;-69
2021/04/18 00:29:00;;;;;;;10.87;9.67;;;3.20;99.90;;;;;;5028133;28;20815;-69
2021/04/18 00:31:26;;;;;;;15.40;10.80;;;3.20;99.90;;;;;;5028103;28;20519;-69
2021/04/18 00:33:53;;;;;;;12.50;11.20;;;3.20;99.90;;;;;;5028024;28;20995;-69
2021/04/18 00:36:20;;;;;;;12.37;10.57;;;3.20;99.90;;;;;;5028289;28;20913;-69
2021/04/18 00:38:46;;;;;;;12.97;10.30;;;3.10;99.90;;;;;;5028032;28;20420;-69
2021/04/18 00:41:13;;;;;;;16.07;12.30;;;3.10;99.90;;;;;;5028387;28;20450;-69
2021/04/18 00:43:42;;;;;;;13.73;10.30;;;3.00;99.90;;;;;;5027903;28;20455;-69
2021/04/18 00:46:09;;;;;;;14.07;10.90;;;3.00;99.90;;;;;;5027625;28;20924;-69
2021/04/18 00:48:40;;;;;;;11.13;9.93;;;3.00;99.90;;;;;;5028071;28;20435;-69
2021/04/18 00:51:08;;;;;;;11.67;10.47;;;3.10;99.90;;;;;;5027962;28;20512;-69
2021/04/18 00:53:34;;;;;;;13.40;10.30;;;3.10;99.90;;;;;;5027937;28;20836;-69
2021/04/18 00:56:01;;;;;;;11.17;9.97;;;3.00;99.90;;;;;;5027908;28;20436;-69
2021/04/18 00:58:28;;;;;;;13.43;10.43;;;3.00;99.90;;;;;;5027799;28;20439;-69
2021/04/18 01:00:55;;;;;;;11.40;10.17;;;2.90;99.90;;;;;;5027380;28;20946;-69
2021/04/18 01:03:22;;;;;;;12.17;10.23;;;3.00;99.90;;;;;;5027868;28;20975;-69
2021/04/18 01:05:49;;;;;;;13.83;11.50;;;2.90;99.90;;;;;;5027822;28;20439;-69
2021/04/18 01:08:16;;;;;;;15.77;11.40;;;2.90;99.90;;;;;;5027886;28;20795;-70
2021/04/18 01:10:42;;;;;;;11.63;10.07;;;2.90;99.90;;;;;;5027512;28;20451;-69
2021/04/18 01:13:09;;;;;;;11.70;10.17;;;3.00;99.90;;;;;;5027711;28;20486;-69
2021/04/18 01:15:36;;;;;;;14.57;11.07;;;3.00;99.90;;;;;;5027825;28;20452;-69
2021/04/18 01:18:04;;;;;;;11.93;10.63;;;3.00;99.90;;;;;;5027720;28;20452;-69
2021/04/18 01:20:31;;;;;;;11.67;9.40;;;2.90;99.90;;;;;;5027849;28;20450;-69
2021/04/18 01:22:58;;;;;;;13.57;10.17;;;2.90;99.90;;;;;;5027537;28;20456;-69
2021/04/18 01:25:25;;;;;;;15.43;9.50;;;2.90;99.90;;;;;;5027824;28;20449;-69
2021/04/18 01:27:52;;;;;;;18.17;10.50;;;2.90;99.90;;;;;;5027821;28;20474;-69
2021/04/18 01:30:22;;;;;;;12.50;9.60;;;2.80;99.90;;;;;;5027185;28;20447;-69
2021/04/18 01:32:52;;;;;;;13.00;10.30;;;2.90;99.90;;;;;;5027424;28;20490;-69
2021/04/18 01:35:19;;;;;;;12.50;10.40;;;2.80;99.90;;;;;;5028265;28;20863;-69
2021/04/18 01:37:46;;;;;;;12.60;9.80;;;2.80;99.90;;;;;;5031016;28;20843;-69
2021/04/18 01:40:16;;;;;;;16.00;10.40;;;2.80;99.90;;;;;;5030805;28;20537;-69
2021/04/18 01:42:45;;;;;;;12.03;10.13;;;2.80;99.90;;;;;;5030640;28;20452;-69
2021/04/18 01:45:12;;;;;;;13.43;11.20;;;2.80;99.90;;;;;;5030561;28;20455;-69
2021/04/18 01:47:40;;;;;;;19.50;10.93;;;2.70;99.90;;;;;;5030645;28;20457;-69
2021/04/18 01:50:09;;;;;;;16.30;11.60;;;2.70;99.90;;;;;;5030997;28;20432;-69
2021/04/18 01:52:37;;;;;;;11.70;9.97;;;2.70;99.90;;;;;;5030455;28;20489;-69
2021/04/18 01:55:04;;;;;;;19.93;12.00;;;2.80;99.90;;;;;;5030754;28;20435;-69
2021/04/18 01:57:32;;;;;;;14.73;10.57;;;2.80;99.90;;;;;;5030498;28;20432;-69
2021/04/18 01:59:59;;;;;;;14.03;11.00;;;2.80;99.90;;;;;;5030414;28;20526;-69
2021/04/18 02:02:26;;;;;;;14.50;11.50;;;2.80;99.90;;;;;;5030523;28;20882;-69
2021/04/18 02:04:53;;;;;;;15.10;11.30;;;2.80;99.90;;;;;;5030599;28;20433;-69
2021/04/18 02:07:20;;;;;;;17.43;11.10;;;2.80;99.90;;;;;;5030359;28;20435;-69
2021/04/18 02:09:47;;;;;;;16.30;12.60;;;2.80;99.90;;;;;;5030248;28;20441;-69
2021/04/18 02:12:14;;;;;;;14.73;12.43;;;2.70;99.90;;;;;;5030274;28;20448;-69
2021/04/18 02:14:41;;;;;;;15.50;12.80;;;2.70;99.90;;;;;;5029967;28;20503;-69
2021/04/18 02:17:08;;;;;;;15.37;11.40;;;2.70;99.90;;;;;;5030331;28;20440;-69
2021/04/18 02:19:35;;;;;;;15.93;11.83;;;2.70;99.90;;;;;;5029980;28;20486;-69
2021/04/18 02:22:02;;;;;;;12.57;10.00;;;2.60;99.90;;;;;;5030076;28;20818;-69
2021/04/18 02:24:29;;;;;;;12.27;10.33;;;2.70;99.90;;;;;;5030195;28;20444;-69
2021/04/18 02:26:56;;;;;;;16.03;11.80;;;2.70;99.90;;;;;;5030291;28;20503;-69
2021/04/18 02:29:23;;;;;;;19.37;12.07;;;2.70;99.90;;;;;;5029924;28;20439;-69
2021/04/18 02:31:51;;;;;;;14.23;11.90;;;2.70;99.90;;;;;;5030157;28;20424;-69
2021/04/18 02:34:18;;;;;;;14.33;11.70;;;2.70;99.90;;;;;;5029638;28;21016;-69
2021/04/18 02:36:45;;;;;;;14.00;11.10;;;2.70;99.90;;;;;;5030246;28;20531;-69
2021/04/18 02:39:11;;;;;;;16.47;11.00;;;2.70;99.90;;;;;;5030019;28;20435;-69
2021/04/18 02:41:38;;;;;;;15.90;12.23;;;2.70;99.90;;;;;;5030044;28;20756;-69
2021/04/18 02:44:05;;;;;;;13.10;10.77;;;2.70;99.90;;;;;;5029858;28;20790;-69
2021/04/18 02:46:32;;;;;;;12.77;10.77;;;2.70;99.90;;;;;;5029417;28;20432;-69
2021/04/18 02:49:02;;;;;;;12.57;10.87;;;2.80;99.90;;;;;;5028782;28;20777;-69
2021/04/18 02:51:29;;;;;;;15.27;11.60;;;2.80;99.90;;;;;;5029991;28;20432;-69
2021/04/18 02:53:58;;;;;;;15.17;11.40;;;2.80;99.90;;;;;;5029374;28;20472;-69
2021/04/18 02:56:25;;;;;;;17.83;11.17;;;2.80;99.90;;;;;;5030445;28;20445;-69
2021/04/18 02:58:52;;;;;;;15.10;12.77;;;2.70;99.90;;;;;;5029415;28;20450;-69
2021/04/18 03:01:19;;;;;;;19.20;13.20;;;2.70;99.90;;;;;;5029455;28;20448;-69
2021/04/18 03:03:46;;;;;;;16.50;13.10;;;2.70;99.90;;;;;;5029390;28;20456;-69
2021/04/18 03:06:13;;;;;;;17.80;13.17;;;2.60;99.90;;;;;;5029590;28;20444;-69
2021/04/18 03:08:40;;;;;;;19.03;13.20;;;2.60;99.90;;;;;;5029772;28;20785;-69
2021/04/18 03:11:07;;;;;;;13.70;11.80;;;2.60;99.90;;;;;;5029310;28;20443;-69
2021/04/18 03:13:34;;;;;;;15.53;12.83;;;2.60;99.90;;;;;;5029182;28;20479;-69
2021/04/18 03:16:00;;;;;;;18.70;13.70;;;2.60;99.90;;;;;;5029112;28;20431;-69
2021/04/18 03:18:27;;;;;;;17.53;12.90;;;2.60;99.90;;;;;;5029397;28;20443;-69
2021/04/18 03:20:53;;;;;;;14.87;12.67;;;2.60;99.90;;;;;;5029257;28;20428;-69
2021/04/18 03:23:21;;;;;;;22.80;14.23;;;2.60;99.90;;;;;;5029296;28;20455;-69
2021/04/18 03:25:48;;;;;;;13.87;11.07;;;2.50;99.90;;;;;;5029523;28;20495;-69
2021/04/18 03:28:15;;;;;;;16.03;11.93;;;2.50;99.90;;;;;;5029307;28;20424;-69
2021/04/18 03:30:42;;;;;;;14.90;12.00;;;2.50;99.90;;;;;;5028495;28;20452;-69
2021/04/18 03:33:09;;;;;;;18.33;13.27;;;2.40;99.90;;;;;;5029003;28;20519;-69
2021/04/18 03:35:36;;;;;;;13.23;11.40;;;2.40;99.90;;;;;;5029116;28;20428;-69
2021/04/18 03:38:03;;;;;;;16.10;12.97;;;2.50;99.90;;;;;;5029202;28;20527;-69
2021/04/18 03:40:31;;;;;;;15.87;12.60;;;2.50;99.90;;;;;;5029038;28;20443;-69
2021/04/18 03:42:58;;;;;;;17.70;12.30;;;2.50;99.90;;;;;;5029466;28;20456;-69
2021/04/18 03:45:25;;;;;;;20.90;13.47;;;2.40;99.90;;;;;;5028437;28;20504;-69
2021/04/18 03:47:51;;;;;;;17.37;12.33;;;2.40;99.90;;;;;;5028942;28;20520;-68
2021/04/18 03:50:18;;;;;;;14.93;11.50;;;2.40;99.90;;;;;;5028687;28;20441;-69
2021/04/18 03:52:45;;;;;;;15.60;12.63;;;2.40;99.90;;;;;;5028890;28;20964;-69
2021/04/18 03:55:12;;;;;;;16.83;12.03;;;2.40;99.90;;;;;;5028887;28;21018;-69
2021/04/18 03:57:40;;;;;;;19.50;12.57;;;2.40;99.90;;;;;;5028536;28;20440;-69
2021/04/18 04:00:08;;;;;;;16.80;11.87;;;2.40;99.90;;;;;;5028216;28;20576;-69
2021/04/18 04:02:35;;;;;;;21.07;12.93;;;2.40;99.90;;;;;;5028697;28;20452;-69
2021/04/18 04:05:02;;;;;;;20.40;13.37;;;2.40;99.90;;;;;;5029042;28;20427;-69
2021/04/18 04:07:29;;;;;;;15.60;12.67;;;2.40;99.90;;;;;;5028566;28;20450;-69
2021/04/18 04:09:55;;;;;;;21.07;14.10;;;2.40;99.90;;;;;;5028370;28;20514;-69
2021/04/18 04:12:24;;;;;;;17.93;12.70;;;2.40;99.90;;;;;;5028177;28;20551;-69
2021/04/18 04:14:52;;;;;;;21.47;13.87;;;2.40;99.90;;;;;;5028238;28;20941;-68
2021/04/18 04:17:19;;;;;;;17.77;13.50;;;2.40;99.90;;;;;;5028444;28;20443;-70
2021/04/18 04:19:46;;;;;;;17.57;12.70;;;2.40;99.90;;;;;;5028279;28;20424;-69
2021/04/18 04:22:14;;;;;;;22.00;12.87;;;2.40;99.90;;;;;;5028343;28;20512;-69
2021/04/18 04:24:40;;;;;;;16.90;13.03;;;2.50;99.90;;;;;;5028369;28;20446;-69
2021/04/18 04:27:08;;;;;;;16.57;12.87;;;2.50;99.90;;;;;;5028234;28;20433;-69
2021/04/18 04:29:34;;;;;;;17.77;12.30;;;2.50;99.90;;;;;;5028115;28;20447;-69
2021/04/18 04:32:02;;;;;;;18.87;12.53;;;2.40;99.90;;;;;;5027883;28;20435;-69
2021/04/18 04:34:29;;;;;;;16.90;13.47;;;2.40;99.90;;;;;;5028089;28;20475;-69
2021/04/18 04:36:55;;;;;;;17.03;13.13;;;2.40;99.90;;;;;;5028251;28;20427;-69
2021/04/18 04:39:22;;;;;;;24.50;14.97;;;2.40;99.90;;;;;;5027938;28;20432;-69
2021/04/18 04:41:49;;;;;;;20.37;14.20;;;2.40;99.90;;;;;;5028133;28;20435;-69
2021/04/18 04:44:16;;;;;;;16.90;13.30;;;2.40;99.90;;;;;;5027932;28;20516;-69
2021/04/18 04:46:44;;;;;;;20.03;13.70;;;2.40;99.90;;;;;;5028221;28;20443;-69
2021/04/18 04:49:12;;;;;;;17.37;13.00;;;2.40;99.90;;;;;;5028166;28;20428;-69
2021/04/18 04:51:38;;;;;;;19.27;13.97;;;2.40;99.90;;;;;;5028066;28;20438;-70
2021/04/18 04:54:06;;;;;;;28.67;13.97;;;2.40;99.90;;;;;;5027889;28;20829;-69
2021/04/18 04:56:33;;;;;;;16.50;13.17;;;2.40;99.90;;;;;;5027971;28;20455;-69
2021/04/18 04:59:00;;;;;;;24.63;18.13;;;2.50;99.90;;;;;;5027884;28;20477;-70
2021/04/18 05:01:26;;;;;;;18.17;16.20;;;2.50;99.90;;;;;;5027838;28;20784;-70
2021/04/18 05:03:53;;;;;;;18.33;15.10;;;2.40;99.90;;;;;;5027788;28;20456;-69
2021/04/18 05:06:21;;;;;;;16.60;13.53;;;2.40;99.90;;;;;;5027756;28;20444;-70
2021/04/18 05:08:48;;;;;;;17.40;12.73;;;2.40;99.90;;;;;;5027670;28;20837;-70
2021/04/18 05:11:14;;;;;;;19.17;15.27;;;2.40;99.90;;;;;;5029682;28;20480;-70
2021/04/18 05:13:41;;;;;;;19.20;14.50;;;2.40;99.90;;;;;;5031189;28;20479;-69
2021/04/18 05:16:08;;;;;;;28.53;21.43;;;2.40;99.90;;;;;;5031129;28;20503;-69
2021/04/18 05:18:35;;;;;;;19.77;14.37;;;2.40;99.90;;;;;;5031154;28;21174;-70
2021/04/18 05:21:02;;;;;;;20.87;14.53;;;2.40;99.90;;;;;;5031100;28;20432;-70
2021/04/18 05:23:29;;;;;;;46.77;23.33;;;2.40;99.90;;;;;;5031308;28;20487;-69
2021/04/18 05:25:59;;;;;;;27.30;16.77;;;2.50;99.90;;;;;;5031193;28;20538;-66
2021/04/18 05:28:26;;;;;;;17.40;14.27;;;2.50;99.90;;;;;;5031084;28;20461;-67
2021/04/18 05:30:55;;;;;;;21.20;16.97;;;2.50;99.90;;;;;;5030669;28;20439;-67
2021/04/18 05:33:21;;;;;;;21.00;15.97;;;2.50;99.90;;;;;;5030927;28;20922;-66
2021/04/18 05:35:48;;;;;;;19.87;15.83;;;2.60;99.90;;;;;;5031005;28;21170;-66
2021/04/18 05:38:15;;;;;;;19.90;17.07;;;2.60;99.90;;;;;;5035390;28;20453;-66
2021/04/18 05:40:42;;;;;;;22.57;16.10;;;2.60;99.90;;;;;;5051242;28;20483;-66
2021/04/18 05:43:10;;;;;;;23.03;16.00;;;2.70;99.90;;;;;;5050625;28;20450;-66
2021/04/18 05:45:37;;;;;;;22.10;15.07;;;2.70;99.90;;;;;;5050777;27;20455;-66
2021/04/18 05:48:04;;;;;;;19.40;15.00;;;2.70;99.90;;;;;;5050287;28;20429;-67
2021/04/18 05:50:30;;;;;;;21.60;15.47;;;2.70;99.90;;;;;;5050642;28;20433;-68
2021/04/18 05:52:57;;;;;;;25.83;19.60;;;2.70;99.90;;;;;;5050726;28;20471;-68
2021/04/18 05:55:24;;;;;;;21.53;15.90;;;2.80;99.90;;;;;;5050439;28;20438;-69
2021/04/18 05:57:51;;;;;;;31.30;19.20;;;2.80;99.90;;;;;;5049574;28;20479;-69
2021/04/18 06:00:19;;;;;;;23.00;15.60;;;2.80;99.90;;;;;;5048764;28;20439;-69
2021/04/18 06:02:46;;;;;;;19.00;15.00;;;2.80;99.90;;;;;;5049395;28;20551;-68
2021/04/18 06:05:13;;;;;;;21.87;15.77;;;2.80;99.90;;;;;;5049183;28;20429;-68
2021/04/18 06:07:40;;;;;;;25.77;19.53;;;2.80;99.90;;;;;;5049142;28;20506;-69
2021/04/18 06:10:07;;;;;;;19.47;15.17;;;2.90;99.90;;;;;;5048934;28;20443;-69
2021/04/18 06:12:34;;;;;;;20.80;15.10;;;2.90;99.90;;;;;;5046367;28;20476;-69
2021/04/18 06:15:02;;;;;;;19.67;15.40;;;3.00;99.90;;;;;;5048805;28;20470;-69
2021/04/18 06:17:31;;;;;;;17.33;13.20;;;3.00;99.90;;;;;;5048627;28;20435;-69
2021/04/18 06:19:58;;;;;;;23.70;16.57;;;3.10;99.90;;;;;;5048884;28;20423;-69
2021/04/18 06:22:25;;;;;;;20.50;15.70;;;3.10;99.90;;;;;;5047753;28;20538;-69
2021/04/18 06:24:52;;;;;;;58.13;34.83;;;3.20;99.90;;;;;;5049390;28;20511;-69
2021/04/18 06:27:18;;;;;;;21.10;16.93;;;3.20;99.90;;;;;;5048914;28;20424;-69
2021/04/18 06:29:45;;;;;;;22.70;17.03;;;3.20;99.90;;;;;;5048238;28;20945;-69
2021/04/18 06:32:13;;;;;;;39.10;23.73;;;3.20;99.90;;;;;;5048395;28;20908;-68
2021/04/18 06:34:40;;;;;;;26.77;19.57;;;3.20;99.90;;;;;;5048792;28;20870;-69
2021/04/18 06:37:06;;;;;;;38.60;24.17;;;3.20;99.90;;;;;;5049022;28;20538;-68
2021/04/18 06:39:34;;;;;;;23.77;16.93;;;3.20;99.90;;;;;;5048415;28;20479;-68
2021/04/18 06:42:04;;;;;;;24.80;18.27;;;3.30;99.90;;;;;;5048732;28;20476;-68
2021/04/18 06:44:32;;;;;;;28.70;22.00;;;3.30;99.90;;;;;;5048614;28;20439;-68
2021/04/18 06:47:00;;;;;;;49.87;32.07;;;3.30;99.90;;;;;;5048673;28;20441;-69
2021/04/18 06:49:29;;;;;;;28.90;22.07;;;3.40;99.90;;;;;;5048815;28;20862;-68
2021/04/18 06:51:56;;;;;;;28.67;19.33;;;3.50;99.90;;;;;;5050042;27;20434;-70
2021/04/18 06:54:23;;;;;;;19.57;14.77;;;3.50;99.90;;;;;;5049188;28;20475;-69
2021/04/18 06:56:54;;;;;;;25.03;18.93;;;3.60;99.90;;;;;;5048693;28;20427;-68
2021/04/18 06:59:21;;;;;;;32.37;24.33;;;3.70;99.90;;;;;;5061826;27;20442;-68
2021/04/18 07:01:48;;;;;;;27.33;21.03;;;3.70;99.90;;;;;;5061570;27;20423;-69
2021/04/18 07:04:17;;;;;;;25.17;18.37;;;3.70;99.90;;;;;;5046173;28;20467;-69
2021/04/18 07:06:46;;;;;;;22.97;17.00;;;3.80;99.90;;;;;;5047967;28;20439;-69
2021/04/18 07:09:13;;;;;;;21.30;15.20;;;3.80;99.90;;;;;;5047930;28;20445;-69
2021/04/18 07:11:48;;;;;;;21.77;15.40;;;3.90;99.90;;;;;;5048431;28;20451;-69
2021/04/18 07:14:22;;;;;;;22.80;17.60;;;3.90;99.90;;;;;;5045751;28;20478;-68
2021/04/18 07:16:49;;;;;;;19.00;14.47;;;4.00;99.90;;;;;;5047691;28;20431;-66
2021/04/18 07:19:23;;;;;;;23.30;18.80;;;4.10;99.90;;;;;;5046032;28;20961;-66
2021/04/18 07:21:52;;;;;;;18.97;15.53;;;4.20;99.90;;;;;;5047228;28;20436;-66
2021/04/18 07:24:20;;;;;;;17.30;13.10;;;4.30;99.90;;;;;;5048118;28;20455;-66
2021/04/18 07:26:56;;;;;;;22.03;18.83;;;4.30;99.90;;;;;;5045222;28;20428;-66
2021/04/18 07:29:23;;;;;;;26.33;19.30;;;4.30;99.90;;;;;;5047805;27;20441;-67
2021/04/18 07:31:50;;;;;;;16.50;12.67;;;4.30;99.90;;;;;;5048359;28;20447;-66
2021/04/18 07:34:22;;;;;;;20.00;14.03;;;4.40;99.90;;;;;;5047710;28;20526;-67
2021/04/18 07:36:50;;;;;;;19.67;15.53;;;4.40;99.90;;;;;;5048350;28;20541;-66
2021/04/18 07:39:20;;;;;;;21.83;16.10;;;4.40;99.90;;;;;;5048592;28;20834;-68
2021/04/18 07:41:48;;;;;;;19.50;15.93;;;4.50;99.90;;;;;;5048264;28;20522;-66
2021/04/18 07:44:16;;;;;;;21.13;15.40;;;4.50;99.90;;;;;;5048162;28;20462;-69
2021/04/18 07:46:48;;;;;;;20.27;15.33;;;4.60;99.90;;;;;;5047689;28;20439;-65
2021/04/18 07:49:15;;;;;;;23.53;14.67;;;4.70;99.90;;;;;;5048161;28;20450;-67
2021/04/18 07:51:45;;;;;;;23.93;17.57;;;4.90;99.90;;;;;;5048184;28;20451;-64
2021/04/18 07:54:12;;;;;;;23.43;17.63;;;5.00;99.90;;;;;;5047967;28;20475;-67
2021/04/18 07:56:44;;;;;;;18.07;14.33;;;5.10;99.90;;;;;;5048118;27;20436;-67
2021/04/18 07:59:13;;;;;;;23.20;18.13;;;5.10;99.90;;;;;;5047826;28;20993;-66
2021/04/18 08:01:40;;;;;;;29.53;22.87;;;5.10;99.90;;;;;;5047492;28;20454;-67
2021/04/18 08:04:09;;;;;;;17.00;14.23;;;5.10;99.90;;;;;;5047531;28;20451;-67
2021/04/18 08:06:39;;;;;;;28.20;15.23;;;5.10;99.90;;;;;;5047851;27;20443;-65
2021/04/18 08:09:17;;;;;;;18.97;15.60;;;5.10;99.90;;;;;;5047938;28;20432;-66
2021/04/18 08:12:09;;;;;;;16.80;13.57;;;5.10;99.90;;;;;;5047106;28;20437;-66
2021/04/18 08:14:37;;;;;;;15.27;12.80;;;5.10;99.90;;;;;;5045144;28;20490;-65
2021/04/18 08:17:06;;;;;;;19.07;14.43;;;5.10;99.90;;;;;;5046765;28;20484;-69
2021/04/18 08:19:33;;;;;;;16.23;12.43;;;5.00;99.90;;;;;;5045774;28;20427;-69
2021/04/18 08:22:00;;;;;;;17.80;13.80;;;5.10;99.90;;;;;;5047168;27;20430;-70
2021/04/18 08:24:39;;;;;;;17.40;14.40;;;5.00;99.90;;;;;;5047630;28;20584;-70
2021/04/18 08:27:11;;;;;;;15.70;13.60;;;5.00;99.90;;;;;;5046756;28;20423;-69
2021/04/18 08:30:02;;;;;;;16.87;13.00;;;5.00;99.90;;;;;;5047156;28;20432;-69
2021/04/18 08:32:42;;;;;;;21.67;17.00;;;5.00;99.90;;;;;;5054057;27;20966;-68
2021/04/18 08:35:12;;;;;;;19.83;14.43;;;4.90;99.90;;;;;;5046979;28;20468;-68
2021/04/18 08:37:39;;;;;;;16.90;14.20;;;5.00;99.90;;;;;;5047087;28;20443;-68
2021/04/18 08:40:06;;;;;;;16.57;13.30;;;4.90;99.90;;;;;;5046249;28;20435;-68
2021/04/18 08:42:34;;;;;;;17.97;14.50;;;5.00;99.90;;;;;;5045571;28;20462;-69
2021/04/18 08:45:02;;;;;;;16.40;13.20;;;5.00;99.90;;;;;;5044825;28;20437;-69
2021/04/18 08:47:31;;;;;;;15.90;13.33;;;5.00;99.90;;;;;;5045207;28;20428;-68
2021/04/18 08:50:07;;;;;;;18.73;13.03;;;5.00;99.90;;;;;;5045311;28;20811;-67
2021/04/18 08:52:37;;;;;;;17.27;13.87;;;5.10;99.90;;;;;;5045561;28;20514;-68
2021/04/18 08:55:06;;;;;;;16.60;13.30;;;5.00;99.90;;;;;;5051214;27;20512;-69
2021/04/18 08:57:34;;;;;;;16.20;12.30;;;5.10;99.90;;;;;;5054576;27;20439;-69
2021/04/18 09:00:08;;;;;;;17.20;14.40;;;5.20;99.90;;;;;;5055981;27;20441;-69
2021/04/18 09:02:35;;;;;;;16.80;12.63;;;5.20;99.90;;;;;;5055604;27;20822;-67
2021/04/18 09:05:04;;;;;;;16.30;12.30;;;5.30;99.90;;;;;;5045375;28;20428;-68
2021/04/18 09:07:33;;;;;;;15.43;12.87;;;5.40;99.90;;;;;;5045397;28;20432;-68
2021/04/18 09:10:01;;;;;;;16.23;12.00;;;5.60;99.90;;;;;;5045067;28;20459;-68
2021/04/18 09:12:29;;;;;;;18.33;12.67;;;5.60;99.90;;;;;;5045271;28;20465;-68
2021/04/18 09:14:58;;;;;;;19.10;13.93;;;5.60;99.90;;;;;;5045466;28;20542;-68
2021/04/18 09:17:26;;;;;;;14.00;11.90;;;5.60;99.90;;;;;;5045066;28;20438;-68
2021/04/18 09:19:54;;;;;;;14.60;11.50;;;5.70;99.90;;;;;;5045137;28;20953;-67
2021/04/18 09:22:24;;;;;;;16.63;12.30;;;5.70;99.90;;;;;;5053814;27;20498;-67
2021/04/18 09:24:55;;;;;;;13.80;9.57;;;5.70;99.90;;;;;;5045104;28;20514;-68
2021/04/18 09:27:25;;;;;;;20.70;13.70;;;5.80;99.90;;;;;;5045174;28;20845;-67
2021/04/18 09:29:54;;;;;;;16.00;12.40;;;5.90;99.90;;;;;;5044428;28;21029;-68
2021/04/18 09:32:23;;;;;;;18.23;13.00;;;6.00;99.90;;;;;;5053505;27;20540;-69
2021/04/18 09:34:50;;;;;;;21.50;15.93;;;6.10;99.90;;;;;;5044861;28;20556;-67
2021/04/18 09:37:21;;;;;;;19.30;14.40;;;6.20;99.90;;;;;;5045114;28;20437;-67
2021/04/18 09:39:56;;;;;;;12.90;10.70;;;6.10;99.90;;;;;;5044049;28;20445;-67
2021/04/18 09:42:24;;;;;;;44.03;26.57;;;6.00;99.90;;;;;;5044844;28;20456;-68
2021/04/18 09:44:52;;;;;;;15.90;11.60;;;5.90;99.90;;;;;;5045111;28;20471;-68
2021/04/18 09:47:25;;;;;;;18.77;12.03;;;6.00;99.90;;;;;;5054277;27;20435;-69
2021/04/18 09:49:57;;;;;;;22.13;13.33;;;6.00;99.90;;;;;;5044580;28;20433;-69
2021/04/18 09:52:35;;;;;;;17.10;11.10;;;6.10;99.90;;;;;;5043187;28;20464;-68
2021/04/18 09:55:18;;;;;;;13.67;10.90;;;6.10;99.90;;;;;;5044500;28;20547;-69
2021/04/18 09:57:51;;;;;;;12.47;10.80;;;6.10;99.90;;;;;;5045763;28;20421;-67
2021/04/18 10:00:25;;;;;;;12.90;10.27;;;6.10;99.90;;;;;;5047966;28;20946;-67
2021/04/18 10:03:11;;;;;;;12.37;10.70;;;6.10;99.90;;;;;;5047411;28;21313;-69
2021/04/18 10:05:55;;;;;;;12.13;10.03;;;6.10;99.90;;;;;;5048507;28;20811;-70
2021/04/18 10:08:24;;;;;;;14.23;11.30;;;6.10;99.90;;;;;;5047753;28;20429;-69
2021/04/18 10:10:53;;;;;;;14.63;11.10;;;6.20;99.90;;;;;;5047769;27;20427;-69
2021/04/18 10:13:41;;;;;;;16.83;10.70;;;6.20;99.90;;;;;;5048886;27;20472;-69
2021/04/18 10:16:08;;;;;;;15.50;11.20;;;6.30;99.90;;;;;;5046379;28;20462;-69
2021/04/18 10:18:37;;;;;;;13.23;10.73;;;6.30;99.90;;;;;;5048532;28;20441;-69
2021/04/18 10:21:17;;;;;;;17.50;10.17;;;6.30;99.90;;;;;;5048437;28;20440;-69
2021/04/18 10:23:44;;;;;;;12.47;10.33;;;6.30;99.90;;;;;;5049422;28;20452;-69
2021/04/18 10:26:11;;;;;;;17.10;11.10;;;6.30;99.90;;;;;;5049512;28;20791;-68
2021/04/18 10:28:38;;;;;;;14.07;10.63;;;6.30;99.90;;;;;;5042109;28;20437;-71
2021/04/18 10:31:05;;;;;;;14.83;11.70;;;6.30;99.90;;;;;;5029106;28;20438;-68
2021/04/18 10:33:31;;;;;;;17.57;13.20;;;6.30;99.90;;;;;;5029027;28;20485;-68
2021/04/18 10:36:02;;;;;;;17.00;13.73;;;6.40;99.90;;;;;;5029572;28;20468;-68
2021/04/18 10:38:28;;;;;;;25.10;17.30;;;6.40;99.90;;;;;;5032504;28;20448;-68
2021/04/18 10:40:55;;;;;;;24.80;15.70;;;6.40;99.90;;;;;;5048715;28;20428;-69
2021/04/18 10:43:22;;;;;;;19.00;15.53;;;6.40;99.90;;;;;;5049240;28;20463;-68
2021/04/18 10:45:52;;;;;;;18.10;13.73;;;6.40;99.90;;;;;;5049144;28;20475;-68
2021/04/18 10:48:18;;;;;;;20.03;14.50;;;6.40;99.90;;;;;;5049226;28;20791;-67
2021/04/18 10:50:46;;;;;;;15.50;13.40;;;6.40;99.90;;;;;;5048754;28;20440;-68
2021/04/18 10:53:14;;;;;;;16.80;12.47;;;6.30;99.90;;;;;;5049038;28;21131;-68
2021/04/18 10:55:41;;;;;;;18.90;15.10;;;6.30;99.90;;;;;;5049047;28;20438;-67
2021/04/18 10:58:08;;;;;;;15.60;12.57;;;6.40;99.90;;;;;;5049039;28;20434;-68
2021/04/18 11:00:35;;;;;;;17.43;14.13;;;6.50;99.90;;;;;;5048786;28;20441;-67
2021/04/18 11:03:02;;;;;;;16.87;12.83;;;6.50;99.90;;;;;;5048598;28;20452;-67
2021/04/18 11:05:28;;;;;;;37.70;24.90;;;6.50;99.90;;;;;;5048712;28;20474;-68
2021/04/18 11:07:55;;;;;;;21.30;15.20;;;6.40;99.90;;;;;;5048002;28;20875;-66
2021/04/18 11:10:23;;;;;;;14.40;12.57;;;6.50;99.90;;;;;;5048386;28;20429;-67
2021/04/18 11:12:49;;;;;;;22.00;16.83;;;6.60;99.90;;;;;;5048508;28;20468;-67
2021/04/18 11:15:16;;;;;;;20.47;14.50;;;6.70;99.90;;;;;;5048730;28;20433;-67
2021/04/18 11:17:43;;;;;;;18.50;14.10;;;6.60;99.90;;;;;;5048459;28;20567;-68
2021/04/18 11:20:12;;;;;;;14.90;13.30;;;6.60;99.90;;;;;;5043517;27;20460;-68
2021/04/18 11:22:39;;;;;;;18.60;13.07;;;6.60;99.90;;;;;;5028621;28;20448;-68
2021/04/18 11:25:07;;;;;;;17.87;14.20;;;6.60;99.90;;;;;;5028797;28;20441;-69
2021/04/18 11:27:34;;;;;;;12.50;11.20;;;6.50;99.90;;;;;;5043007;28;20508;-68
2021/04/18 11:30:04;;;;;;;19.40;13.07;;;6.40;99.90;;;;;;5047695;28;20424;-69
2021/04/18 11:32:32;;;;;;;49.37;34.93;;;6.50;99.90;;;;;;5047984;28;20441;-69
2021/04/18 11:35:05;;;;;;;14.13;11.70;;;6.50;99.90;;;;;;5048242;28;20468;-69
2021/04/18 11:37:32;;;;;;;12.90;10.53;;;6.50;99.90;;;;;;5048603;28;20959;-68
2021/04/18 11:39:59;;;;;;;12.53;10.27;;;6.60;99.90;;;;;;5048214;28;20498;-66
2021/04/18 11:42:26;;;;;;;14.20;10.10;;;6.80;99.90;;;;;;5048126;28;20463;-66
2021/04/18 11:44:54;;;;;;;15.53;12.67;;;6.90;99.90;;;;;;5048407;28;20441;-66
2021/04/18 11:47:27;;;;;;;49.87;39.47;;;7.10;99.90;;;;;;5047903;28;20450;-66
2021/04/18 11:49:54;;;;;;;18.83;13.53;;;7.30;99.90;;;;;;5047899;28;20431;-67
2021/04/18 11:52:20;;;;;;;31.67;21.03;;;7.40;99.90;;;;;;5047859;28;20468;-66
2021/04/18 11:54:47;;;;;;;16.20;12.30;;;7.50;99.90;;;;;;5047753;28;20467;-66
2021/04/18 11:57:14;;;;;;;25.20;15.23;;;7.40;99.90;;;;;;5048186;28;20436;-67
2021/04/18 11:59:40;;;;;;;17.83;10.67;;;7.40;99.90;;;;;;5047794;28;20837;-66
2021/04/18 12:02:08;;;;;;;16.07;10.83;;;7.40;99.90;;;;;;5047593;28;20450;-67
2021/04/18 12:04:35;;;;;;;14.90;10.97;;;7.20;99.90;;;;;;5047807;28;20432;-66
2021/04/18 12:07:02;;;;;;;17.00;11.40;;;7.20;99.90;;;;;;5047952;28;20434;-66
2021/04/18 12:09:29;;;;;;;14.57;10.07;;;7.10;99.90;;;;;;5047519;28;20486;-67
2021/04/18 12:11:56;;;;;;;14.40;10.30;;;7.00;99.90;;;;;;5047654;28;21123;-66
2021/04/18 12:14:23;;;;;;;13.00;10.50;;;7.00;99.90;;;;;;5047866;28;21160;-67
2021/04/18 12:16:52;;;;;;;12.63;10.27;;;6.90;99.90;;;;;;5047571;28;20441;-68
2021/04/18 12:19:20;;;;;;;16.30;9.70;;;6.80;99.90;;;;;;5047384;28;20432;-69
2021/04/18 12:21:47;;;;;;;12.47;9.70;;;6.60;99.90;;;;;;5028481;28;20484;-68
2021/04/18 12:24:13;;;;;;;13.60;10.10;;;6.60;99.90;;;;;;5027573;28;20545;-66
2021/04/18 12:26:40;;;;;;;12.50;9.87;;;6.60;99.90;;;;;;5027712;28;20450;-66
2021/04/18 12:29:07;;;;;;;11.23;8.73;;;6.70;99.90;;;;;;5028759;27;20456;-67
2021/04/18 12:31:36;;;;;;;17.20;10.53;;;6.70;99.90;;;;;;5026651;28;21125;-67
2021/04/18 12:34:03;;;;;;;13.70;10.43;;;6.90;99.90;;;;;;5025968;28;20478;-67
2021/04/18 12:36:31;;;;;;;13.03;8.87;;;7.00;99.90;;;;;;5025974;28;20436;-65
2021/04/18 12:38:57;;;;;;;14.47;10.30;;;7.10;99.90;;;;;;5027527;28;20428;-66
2021/04/18 12:41:24;;;;;;;18.50;10.47;;;7.20;99.90;;;;;;5027809;28;20449;-66
2021/04/18 12:43:54;;;;;;;13.43;9.30;;;7.30;99.90;;;;;;5027278;28;20466;-68